Time;durP1;ratioP1;P1;durP2;ratioP2;P2;SDS_P1;SDS_P2;PMS_P1;PMS_P2;Temp;Humidity;BMP_temperature;BMP_pressure;BME280_temperature;BME280_humidity;BME280_pressure;Samples;Min_cycle;Max_cycle;Signal;HPM_P1;HPM_P2
2023/04/17 00:01:38;;;;;;;49.30;27.20;;;7.80;99.90;;;;;;4960977;28;20100;-60
2023/04/17 00:04:04;;;;;;;44.90;27.33;;;7.80;99.90;;;;;;4947235;28;20065;-61
2023/04/17 00:06:32;;;;;;;43.45;27.33;;;7.80;99.90;;;;;;4945309;28;20046;-62
2023/04/17 00:08:58;;;;;;;43.38;26.38;;;7.80;99.90;;;;;;4944902;28;21571;-60
2023/04/17 00:11:25;;;;;;;41.58;24.65;;;7.70;99.90;;;;;;4962950;28;20061;-60
2023/04/17 00:13:51;;;;;;;39.85;24.58;;;7.70;99.90;;;;;;4964482;28;20051;-57
2023/04/17 00:16:16;;;;;;;42.42;25.67;;;7.70;99.90;;;;;;4960647;28;20511;-60
2023/04/17 00:18:42;;;;;;;42.67;25.52;;;7.70;99.90;;;;;;4966016;28;20496;-61
2023/04/17 00:21:08;;;;;;;50.85;25.63;;;7.70;99.90;;;;;;4965999;28;20043;-59
2023/04/17 00:23:34;;;;;;;42.40;25.33;;;7.70;99.90;;;;;;4953680;28;20741;-61
2023/04/17 00:26:00;;;;;;;43.60;25.90;;;7.70;99.90;;;;;;4960668;28;20046;-61
2023/04/17 00:28:25;;;;;;;42.08;25.20;;;7.70;99.90;;;;;;4963259;28;20050;-59
2023/04/17 00:30:51;;;;;;;43.22;25.15;;;7.60;99.90;;;;;;4964536;28;20137;-60
2023/04/17 00:33:17;;;;;;;44.13;24.05;;;7.60;99.90;;;;;;4963809;28;20560;-59
2023/04/17 00:35:43;;;;;;;41.58;24.83;;;7.60;99.90;;;;;;4952145;28;20042;-58
2023/04/17 00:38:09;;;;;;;46.10;25.23;;;7.60;99.90;;;;;;4967302;28;20039;-61
2023/04/17 00:40:35;;;;;;;45.63;25.45;;;7.60;99.90;;;;;;4954226;28;20049;-60
2023/04/17 00:43:02;;;;;;;45.65;26.92;;;7.60;99.90;;;;;;4964231;28;20046;-61
2023/04/17 00:45:29;;;;;;;44.42;25.40;;;7.60;99.90;;;;;;4959009;28;20065;-60
2023/04/17 00:47:57;;;;;;;43.65;25.98;;;7.60;99.90;;;;;;4965527;28;20046;-56
2023/04/17 00:50:26;;;;;;;50.83;25.63;;;7.60;99.90;;;;;;4962792;28;20108;-60
2023/04/17 00:52:52;;;;;;;45.38;26.05;;;7.60;99.90;;;;;;4946360;28;20183;-60
2023/04/17 00:55:19;;;;;;;49.55;26.27;;;7.60;99.90;;;;;;4960743;28;20042;-61
2023/04/17 00:57:47;;;;;;;47.72;27.02;;;7.60;99.90;;;;;;4958679;28;20057;-61
2023/04/17 01:00:13;;;;;;;49.75;27.95;;;7.60;99.90;;;;;;4960462;28;20057;-61
2023/04/17 01:02:39;;;;;;;47.13;27.85;;;7.60;99.90;;;;;;4941962;28;20532;-61
2023/04/17 01:05:05;;;;;;;52.13;27.23;;;7.60;99.90;;;;;;4954260;28;20117;-59
2023/04/17 01:07:31;;;;;;;54.65;27.75;;;7.60;99.90;;;;;;4943592;28;20140;-60
2023/04/17 01:09:57;;;;;;;53.25;28.08;;;7.60;99.90;;;;;;4960234;28;20047;-61
2023/04/17 01:12:24;;;;;;;52.25;28.40;;;7.60;99.90;;;;;;4958715;28;20085;-60
2023/04/17 01:14:54;;;;;;;53.78;27.40;;;7.60;99.90;;;;;;4961744;28;20035;-61
2023/04/17 01:17:21;;;;;;;60.83;29.40;;;7.50;99.90;;;;;;4962516;28;20492;-61
2023/04/17 01:19:48;;;;;;;55.67;28.38;;;7.50;99.90;;;;;;4943670;28;20047;-58
2023/04/17 01:22:21;;;;;;;49.95;27.77;;;7.50;99.90;;;;;;4957387;28;20465;-60
2023/04/17 01:24:47;;;;;;;52.28;27.98;;;7.50;99.90;;;;;;4963636;28;20057;-61
2023/04/17 01:27:14;;;;;;;54.10;28.33;;;7.50;99.90;;;;;;4960137;28;20070;-60
2023/04/17 01:29:40;;;;;;;52.65;27.33;;;7.50;99.90;;;;;;4964202;28;20639;-61
2023/04/17 01:32:06;;;;;;;51.55;28.23;;;7.50;99.90;;;;;;4945267;28;20052;-61
2023/04/17 01:34:33;;;;;;;52.33;28.33;;;7.60;99.90;;;;;;4957895;28;20046;-60
2023/04/17 01:36:58;;;;;;;64.07;28.63;;;7.60;99.90;;;;;;4960294;28;20165;-59
2023/04/17 01:39:25;;;;;;;58.10;29.33;;;7.50;99.90;;;;;;4963149;28;20120;-60
2023/04/17 01:41:51;;;;;;;53.58;26.23;;;7.60;99.90;;;;;;4962700;28;20161;-57
2023/04/17 01:44:17;;;;;;;53.33;28.30;;;7.60;99.90;;;;;;4936906;28;20525;-61
2023/04/17 01:46:43;;;;;;;47.28;25.30;;;7.50;99.90;;;;;;4963819;28;20105;-61
2023/04/17 01:49:09;;;;;;;77.78;27.52;;;7.50;99.90;;;;;;4960018;28;22489;-60
2023/04/17 01:51:35;;;;;;;51.35;27.45;;;7.50;99.90;;;;;;4964747;28;20062;-61
2023/04/17 01:54:01;;;;;;;62.58;28.27;;;7.50;99.90;;;;;;4950710;28;20053;-61
2023/04/17 01:56:26;;;;;;;55.63;27.20;;;7.50;99.90;;;;;;4970901;28;20035;-58
2023/04/17 01:58:52;;;;;;;55.40;27.25;;;7.50;99.90;;;;;;4972453;28;20062;-62
2023/04/17 02:01:18;;;;;;;64.47;26.80;;;7.50;99.90;;;;;;4970786;28;20566;-60
2023/04/17 02:03:44;;;;;;;73.85;26.92;;;7.50;99.90;;;;;;4968763;28;20057;-61
2023/04/17 02:06:10;;;;;;;67.78;26.13;;;7.50;99.90;;;;;;4944482;28;20042;-61
2023/04/17 02:08:36;;;;;;;68.40;26.30;;;7.50;99.90;;;;;;4957526;28;20047;-60
2023/04/17 02:11:01;;;;;;;85.95;26.60;;;7.40;99.90;;;;;;4968322;28;20051;-61
2023/04/17 02:13:27;;;;;;;68.30;25.77;;;7.40;99.90;;;;;;4952939;28;20043;-59
2023/04/17 02:15:53;;;;;;;50.40;25.38;;;7.40;99.90;;;;;;4967204;28;20043;-61
2023/04/17 02:18:19;;;;;;;47.78;26.48;;;7.50;99.90;;;;;;4955695;28;20235;-61
2023/04/17 02:20:45;;;;;;;72.25;26.63;;;7.40;99.90;;;;;;4971788;28;20038;-60
2023/04/17 02:23:11;;;;;;;55.75;24.98;;;7.40;99.90;;;;;;4969107;28;20453;-59
2023/04/17 02:25:37;;;;;;;57.25;26.20;;;7.40;99.90;;;;;;4970696;28;20038;-61
2023/04/17 02:28:02;;;;;;;57.80;25.08;;;7.40;99.90;;;;;;4968138;28;20104;-61
2023/04/17 02:30:28;;;;;;;45.60;25.63;;;7.40;99.90;;;;;;4967353;28;20081;-59
2023/04/17 02:32:55;;;;;;;69.03;23.80;;;7.40;99.90;;;;;;4969235;28;20490;-61
2023/04/17 02:35:22;;;;;;;85.10;24.25;;;7.40;99.90;;;;;;4969485;28;20043;-60
2023/04/17 02:37:48;;;;;;;51.83;25.25;;;7.40;99.90;;;;;;4953371;28;20149;-61
2023/04/17 02:40:14;;;;;;;60.40;24.50;;;7.40;99.90;;;;;;4966106;28;20069;-56
2023/04/17 02:42:40;;;;;;;56.63;24.92;;;7.40;99.90;;;;;;4950123;28;20041;-59
2023/04/17 02:45:07;;;;;;;54.95;24.40;;;7.40;99.90;;;;;;4952445;28;20732;-60
2023/04/17 02:47:33;;;;;;;68.75;26.02;;;7.30;99.90;;;;;;4944904;28;20057;-61
2023/04/17 02:50:01;;;;;;;49.15;25.65;;;7.30;99.90;;;;;;4946129;28;20050;-59
2023/04/17 02:52:28;;;;;;;58.22;25.10;;;7.30;99.90;;;;;;4965401;28;20073;-57
2023/04/17 02:54:55;;;;;;;56.78;25.95;;;7.40;99.90;;;;;;4968656;28;20496;-60
2023/04/17 02:57:22;;;;;;;55.42;25.85;;;7.40;99.90;;;;;;4969427;28;20075;-61
2023/04/17 02:59:48;;;;;;;47.47;24.95;;;7.30;99.90;;;;;;4949702;28;21210;-58
2023/04/17 03:02:14;;;;;;;51.85;25.88;;;7.30;99.90;;;;;;4964424;28;20053;-59
2023/04/17 03:04:40;;;;;;;58.45;26.23;;;7.30;99.90;;;;;;4969602;28;20062;-58
2023/04/17 03:07:05;;;;;;;93.40;26.83;;;7.30;99.90;;;;;;4970229;28;20038;-61
2023/04/17 03:09:32;;;;;;;64.72;25.15;;;7.30;99.90;;;;;;4948693;28;20038;-56
2023/04/17 03:11:58;;;;;;;114.82;26.63;;;7.40;99.90;;;;;;4949949;28;20087;-61
2023/04/17 03:14:24;;;;;;;79.18;26.27;;;7.30;99.90;;;;;;4966322;28;20558;-61
2023/04/17 03:16:50;;;;;;;82.03;28.10;;;7.30;99.90;;;;;;4966343;28;20054;-60
2023/04/17 03:19:15;;;;;;;81.88;29.77;;;7.30;99.90;;;;;;4970434;28;20138;-61
2023/04/17 03:21:41;;;;;;;80.45;30.25;;;7.30;99.90;;;;;;4969189;28;20038;-61
2023/04/17 03:24:10;;;;;;;87.93;29.52;;;7.30;99.90;;;;;;4968766;28;20548;-60
2023/04/17 03:26:35;;;;;;;80.10;29.38;;;7.30;99.90;;;;;;4968587;28;20054;-61
2023/04/17 03:29:01;;;;;;;79.85;27.08;;;7.30;99.90;;;;;;4962453;28;20038;-61
2023/04/17 03:31:27;;;;;;;281.33;30.92;;;7.30;99.90;;;;;;4967537;28;20050;-61
2023/04/17 03:33:53;;;;;;;129.63;25.00;;;7.20;99.90;;;;;;4967636;28;20046;-61
2023/04/17 03:36:19;;;;;;;67.38;23.52;;;7.20;99.90;;;;;;4947933;28;20054;-61
2023/04/17 03:38:44;;;;;;;87.82;23.98;;;7.20;99.90;;;;;;4973336;28;20163;-61
2023/04/17 03:41:10;;;;;;;132.32;25.90;;;7.30;99.90;;;;;;4953883;28;20157;-59
2023/04/17 03:43:36;;;;;;;69.97;23.00;;;7.20;99.90;;;;;;4958760;28;20117;-61
2023/04/17 03:46:01;;;;;;;87.47;23.92;;;7.20;99.90;;;;;;4964385;28;20048;-61
2023/04/17 03:48:27;;;;;;;116.95;25.05;;;7.20;99.90;;;;;;4951706;28;20053;-60
2023/04/17 03:50:53;;;;;;;174.63;26.88;;;7.10;99.90;;;;;;4966274;28;20057;-61
2023/04/17 03:53:19;;;;;;;125.30;25.85;;;7.20;99.90;;;;;;4962301;28;20496;-61
2023/04/17 03:55:44;;;;;;;105.15;24.55;;;7.10;99.90;;;;;;4962067;28;20438;-61
2023/04/17 03:58:10;;;;;;;126.32;27.20;;;7.20;99.90;;;;;;4956352;28;20095;-60
2023/04/17 04:00:36;;;;;;;90.47;24.52;;;7.10;99.90;;;;;;4947339;28;20137;-61
2023/04/17 04:03:03;;;;;;;104.45;26.25;;;7.10;99.90;;;;;;4969092;28;20053;-61
2023/04/17 04:05:28;;;;;;;156.18;29.23;;;7.10;99.90;;;;;;4968363;28;20050;-60
2023/04/17 04:07:55;;;;;;;197.48;31.90;;;7.20;99.90;;;;;;4950151;28;20408;-61
2023/04/17 04:10:20;;;;;;;175.68;31.88;;;7.20;99.90;;;;;;4968592;28;20053;-59
2023/04/17 04:12:46;;;;;;;85.88;30.73;;;7.20;99.90;;;;;;4964670;28;20069;-61
2023/04/17 04:15:12;;;;;;;82.90;31.23;;;7.20;99.90;;;;;;4963913;28;20818;-59
2023/04/17 04:17:38;;;;;;;87.30;30.50;;;7.20;99.90;;;;;;4969243;28;20051;-60
2023/04/17 04:20:07;;;;;;;84.90;29.20;;;7.20;99.90;;;;;;4968501;28;20054;-61
2023/04/17 04:22:33;;;;;;;71.47;29.63;;;7.20;99.90;;;;;;4965525;28;20068;-60
2023/04/17 04:24:59;;;;;;;59.63;28.88;;;7.20;99.90;;;;;;4945500;28;20560;-61
2023/04/17 04:27:26;;;;;;;88.40;29.00;;;7.20;99.90;;;;;;4962874;28;20053;-58
2023/04/17 04:29:52;;;;;;;151.70;31.23;;;7.20;99.90;;;;;;4965573;28;20058;-61
2023/04/17 04:32:18;;;;;;;85.20;28.98;;;7.20;99.90;;;;;;4961683;28;20062;-61
2023/04/17 04:34:43;;;;;;;54.50;28.50;;;7.20;99.90;;;;;;4945764;28;20489;-60
2023/04/17 04:37:14;;;;;;;63.30;27.15;;;7.20;99.90;;;;;;4962286;28;20070;-59
2023/04/17 04:39:40;;;;;;;90.43;28.65;;;7.20;99.90;;;;;;4967792;28;20384;-61
2023/04/17 04:42:08;;;;;;;97.25;30.50;;;7.20;99.90;;;;;;4967537;28;20034;-58
2023/04/17 04:44:35;;;;;;;53.83;29.02;;;7.20;99.90;;;;;;4970700;28;20089;-60
2023/04/17 04:47:00;;;;;;;76.63;28.55;;;7.20;99.90;;;;;;4972271;28;20519;-59
2023/04/17 04:49:26;;;;;;;68.88;29.65;;;7.30;99.90;;;;;;4966801;28;20043;-61
2023/04/17 04:51:52;;;;;;;62.35;28.77;;;7.30;99.90;;;;;;4967301;28;20069;-61
2023/04/17 04:54:18;;;;;;;60.13;29.95;;;7.30;99.90;;;;;;4970673;28;20047;-61
2023/04/17 04:56:44;;;;;;;75.78;30.45;;;7.30;99.90;;;;;;4944120;28;20038;-59
2023/04/17 04:59:10;;;;;;;78.35;31.75;;;7.30;99.90;;;;;;4968308;28;20519;-60
2023/04/17 05:01:38;;;;;;;77.00;31.02;;;7.30;99.90;;;;;;4967515;28;20074;-60
2023/04/17 05:04:04;;;;;;;75.60;31.15;;;7.30;99.90;;;;;;4965343;28;20084;-60
2023/04/17 05:06:30;;;;;;;65.22;31.55;;;7.30;99.90;;;;;;4971814;28;20046;-60
2023/04/17 05:08:56;;;;;;;56.58;29.65;;;7.30;99.90;;;;;;4969042;28;20065;-61
2023/04/17 05:11:21;;;;;;;64.75;29.98;;;7.40;99.90;;;;;;4967948;28;20051;-61
2023/04/17 05:13:47;;;;;;;66.45;31.13;;;7.30;99.90;;;;;;4966163;28;20050;-61
2023/04/17 05:16:13;;;;;;;55.10;27.63;;;7.40;99.90;;;;;;4966616;28;20100;-61
2023/04/17 05:18:38;;;;;;;59.58;28.70;;;7.40;99.90;;;;;;4964426;28;20465;-61
2023/04/17 05:21:04;;;;;;;53.85;27.05;;;7.30;99.90;;;;;;4951168;28;20038;-61
2023/04/17 05:23:30;;;;;;;54.58;27.27;;;7.40;99.90;;;;;;4970868;28;20493;-60
2023/04/17 05:25:56;;;;;;;61.45;28.88;;;7.40;99.90;;;;;;4970446;28;20125;-61
2023/04/17 05:28:22;;;;;;;76.85;30.58;;;7.40;99.90;;;;;;4964248;28;20042;-61
2023/04/17 05:30:47;;;;;;;59.17;27.92;;;7.40;99.90;;;;;;4967352;28;20073;-59
2023/04/17 05:33:13;;;;;;;55.80;26.95;;;7.40;99.90;;;;;;4967342;28;20218;-61
2023/04/17 05:35:39;;;;;;;59.17;28.20;;;7.40;99.90;;;;;;4963594;28;20608;-60
2023/04/17 05:38:06;;;;;;;63.80;29.45;;;7.50;99.90;;;;;;4965891;28;20050;-60
2023/04/17 05:40:32;;;;;;;63.40;28.73;;;7.50;99.90;;;;;;4951576;28;20042;-60
2023/04/17 05:43:08;;;;;;;58.42;27.95;;;7.50;99.90;;;;;;4964038;28;20491;-58
2023/04/17 05:45:33;;;;;;;60.10;28.77;;;7.50;99.90;;;;;;4939014;28;20644;-61
2023/04/17 05:47:59;;;;;;;54.08;27.13;;;7.50;99.90;;;;;;4961432;28;20046;-60
2023/04/17 05:50:25;;;;;;;53.65;26.77;;;7.50;99.90;;;;;;4953445;28;20052;-59
2023/04/17 05:52:51;;;;;;;54.28;26.40;;;7.60;99.90;;;;;;4959712;28;20051;-61
2023/04/17 05:55:18;;;;;;;50.25;26.13;;;7.60;99.90;;;;;;4961306;28;20533;-61
2023/04/17 05:57:45;;;;;;;51.10;25.10;;;7.60;99.90;;;;;;4958394;28;20042;-68
2023/04/17 06:00:12;;;;;;;54.55;27.05;;;7.70;99.90;;;;;;4948945;28;20101;-66
2023/04/17 06:02:39;;;;;;;47.88;25.35;;;7.70;99.90;;;;;;4949299;28;20508;-67
2023/04/17 06:05:06;;;;;;;51.63;26.58;;;7.70;99.90;;;;;;4930561;28;20046;-67
2023/04/17 06:07:32;;;;;;;44.67;24.85;;;7.80;99.90;;;;;;4936411;28;20058;-68
2023/04/17 06:09:58;;;;;;;46.03;25.40;;;7.80;99.90;;;;;;4945447;28;20038;-67
2023/04/17 06:12:24;;;;;;;48.53;25.60;;;7.80;99.90;;;;;;4928723;28;20518;-70
2023/04/17 06:14:50;;;;;;;45.13;25.38;;;7.90;99.90;;;;;;4941238;28;20132;-67
2023/04/17 06:17:15;;;;;;;42.30;24.65;;;7.90;99.90;;;;;;4950667;28;20039;-67
2023/04/17 06:19:41;;;;;;;41.30;24.75;;;8.00;99.90;;;;;;4950639;28;20047;-67
2023/04/17 06:22:07;;;;;;;43.05;25.02;;;8.00;99.90;;;;;;4931162;28;20034;-68
2023/04/17 06:24:32;;;;;;;41.50;24.65;;;8.00;99.90;;;;;;4938802;28;20077;-69
2023/04/17 06:26:58;;;;;;;35.75;23.10;;;8.00;99.90;;;;;;4950430;28;20050;-68
2023/04/17 06:29:24;;;;;;;36.70;24.00;;;8.10;99.90;;;;;;4948357;28;20083;-68
2023/04/17 06:31:52;;;;;;;38.15;24.42;;;8.10;99.90;;;;;;4949248;28;20039;-68
2023/04/17 06:34:18;;;;;;;38.75;24.65;;;8.10;99.90;;;;;;4947102;28;20038;-68
2023/04/17 06:36:43;;;;;;;37.78;23.60;;;8.20;99.90;;;;;;4951594;28;20042;-67
2023/04/17 06:39:09;;;;;;;36.03;24.65;;;8.20;99.90;;;;;;4952859;28;20137;-67
2023/04/17 06:41:35;;;;;;;37.53;23.38;;;8.30;99.90;;;;;;4950069;28;20500;-67
2023/04/17 06:44:00;;;;;;;35.50;23.58;;;8.30;99.90;;;;;;4951081;28;20156;-68
2023/04/17 06:46:26;;;;;;;35.58;23.67;;;8.40;99.90;;;;;;4947811;28;20379;-68
2023/04/17 06:48:56;;;;;;;37.92;24.63;;;8.30;99.90;;;;;;4927719;28;20038;-68
2023/04/17 06:51:24;;;;;;;37.22;24.52;;;8.50;99.90;;;;;;4959672;28;20134;-68
2023/04/17 06:53:50;;;;;;;40.25;25.02;;;8.60;99.90;;;;;;4959694;28;20471;-68
2023/04/17 06:56:15;;;;;;;40.58;25.75;;;8.60;99.90;;;;;;4949290;28;20047;-68
2023/04/17 06:58:45;;;;;;;39.83;25.98;;;8.70;99.90;;;;;;4941542;28;20133;-67
2023/04/17 07:01:12;;;;;;;42.28;26.58;;;8.80;99.90;;;;;;4949488;28;20489;-68
2023/04/17 07:03:42;;;;;;;38.90;26.30;;;8.90;99.90;;;;;;4960202;28;20078;-68
2023/04/17 07:06:08;;;;;;;39.92;26.30;;;8.90;99.90;;;;;;4949489;28;20506;-69
2023/04/17 07:08:34;;;;;;;37.83;26.65;;;9.00;99.90;;;;;;4947463;28;20092;-68
2023/04/17 07:11:01;;;;;;;33.75;24.70;;;9.00;99.90;;;;;;4949493;28;20129;-67
2023/04/17 07:13:30;;;;;;;38.47;25.42;;;9.10;99.90;;;;;;4945891;28;21754;-68
2023/04/17 07:15:57;;;;;;;37.05;24.42;;;9.20;99.90;;;;;;4916366;28;20081;-66
2023/04/17 07:18:25;;;;;;;34.55;24.20;;;9.20;99.90;;;;;;4943371;28;20050;-69
2023/04/17 07:20:51;;;;;;;35.10;23.05;;;9.30;99.90;;;;;;4930957;28;20054;-67
2023/04/17 07:23:17;;;;;;;34.75;24.00;;;9.30;99.90;;;;;;4933463;28;20101;-69
2023/04/17 07:25:42;;;;;;;32.67;24.13;;;9.40;99.90;;;;;;4945072;28;20591;-68
2023/04/17 07:28:09;;;;;;;32.40;22.85;;;9.40;99.90;;;;;;4943086;28;20137;-68
2023/04/17 07:30:35;;;;;;;29.85;21.98;;;9.50;99.90;;;;;;4929715;28;20050;-67
2023/04/17 07:33:01;;;;;;;31.95;22.30;;;9.60;99.90;;;;;;4945632;28;20413;-67
2023/04/17 07:35:27;;;;;;;29.17;20.80;;;9.60;99.90;;;;;;4940724;28;20050;-68
2023/04/17 07:37:54;;;;;;;26.45;20.30;;;9.70;99.90;;;;;;4942162;28;20093;-68
2023/04/17 07:40:20;;;;;;;29.00;20.13;;;9.70;99.90;;;;;;4942013;28;20538;-69
2023/04/17 07:42:46;;;;;;;30.45;21.00;;;9.80;99.90;;;;;;4928392;28;20057;-68
2023/04/17 07:45:12;;;;;;;32.42;21.60;;;9.80;99.90;;;;;;4942060;28;20124;-67
2023/04/17 07:47:37;;;;;;;28.55;21.27;;;9.80;99.90;;;;;;4943820;28;20141;-68
2023/04/17 07:50:04;;;;;;;29.83;22.83;;;9.90;99.90;;;;;;4938016;28;20053;-69
2023/04/17 07:52:29;;;;;;;27.80;20.48;;;10.00;99.90;;;;;;4953667;28;20142;-69
2023/04/17 07:54:55;;;;;;;29.42;22.20;;;10.10;99.90;;;;;;4924783;28;20386;-67
2023/04/17 07:57:25;;;;;;;30.25;22.60;;;10.20;99.90;;;;;;4921028;28;20051;-68
2023/04/17 07:59:52;;;;;;;26.33;19.58;;;10.30;99.90;;;;;;4938324;28;20489;-67
2023/04/17 08:02:18;;;;;;;27.02;19.25;;;10.30;99.90;;;;;;4939801;28;20473;-68
2023/04/17 08:04:45;;;;;;;21.80;18.05;;;10.40;99.90;;;;;;4940766;28;20047;-68
2023/04/17 08:07:11;;;;;;;24.63;17.95;;;10.40;99.90;;;;;;4939456;28;20069;-67
2023/04/17 08:09:37;;;;;;;26.48;18.83;;;10.40;99.90;;;;;;4943152;28;20051;-68
2023/04/17 08:12:04;;;;;;;26.15;19.17;;;10.40;99.90;;;;;;4937716;28;20061;-68
2023/04/17 08:14:30;;;;;;;25.85;20.17;;;10.50;99.90;;;;;;4947396;28;20051;-69
2023/04/17 08:16:56;;;;;;;27.15;20.10;;;10.50;99.90;;;;;;4942260;28;20047;-69
2023/04/17 08:19:22;;;;;;;27.88;20.25;;;10.60;99.90;;;;;;4942703;28;20126;-67
2023/04/17 08:21:48;;;;;;;25.75;19.60;;;10.70;99.90;;;;;;4934799;28;20039;-68
2023/04/17 08:24:14;;;;;;;26.05;19.25;;;10.80;99.90;;;;;;4945831;28;20054;-68
2023/04/17 08:26:40;;;;;;;24.88;18.27;;;10.90;99.90;;;;;;4923812;28;20058;-69
2023/04/17 08:29:07;;;;;;;24.27;18.45;;;11.00;99.90;;;;;;4942445;28;20514;-67
2023/04/17 08:31:35;;;;;;;24.95;18.30;;;11.10;99.90;;;;;;4921262;28;20043;-68
2023/04/17 08:34:02;;;;;;;21.52;17.50;;;11.20;99.90;;;;;;4936536;28;20608;-67
2023/04/17 08:36:28;;;;;;;21.83;17.30;;;11.30;99.90;;;;;;4945367;28;20698;-69
2023/04/17 08:38:54;;;;;;;24.13;17.48;;;11.30;99.90;;;;;;4946788;28;20054;-69
2023/04/17 08:41:24;;;;;;;22.77;17.13;;;11.50;99.90;;;;;;4929116;28;20062;-69
2023/04/17 08:43:50;;;;;;;21.38;16.50;;;11.60;99.90;;;;;;4946376;28;20150;-68
2023/04/17 08:46:19;;;;;;;21.52;16.80;;;11.80;99.90;;;;;;4935628;28;20505;-67
2023/04/17 08:48:45;;;;;;;22.90;18.00;;;11.90;99.90;;;;;;4937338;28;20078;-67
2023/04/17 08:51:12;;;;;;;26.02;17.35;;;12.00;99.90;;;;;;4942131;28;20058;-66
2023/04/17 08:53:37;;;;;;;22.65;17.65;;;12.10;99.90;;;;;;4955001;28;20058;-69
2023/04/17 08:56:05;;;;;;;24.13;17.05;;;12.10;99.90;;;;;;4946103;28;20055;-68
2023/04/17 08:58:35;;;;;;;21.65;17.30;;;12.20;99.90;;;;;;4949000;28;20425;-67
2023/04/17 09:01:11;;;;;;;19.85;15.75;;;12.20;99.90;;;;;;4951375;28;20046;-67
2023/04/17 09:03:42;;;;;;;24.92;17.92;;;12.30;99.90;;;;;;4950280;28;20054;-68
2023/04/17 09:06:12;;;;;;;23.58;16.85;;;12.40;99.90;;;;;;4941358;28;20051;-68
2023/04/17 09:08:52;;;;;;;22.58;16.85;;;12.40;99.90;;;;;;4938192;28;20134;-68
2023/04/17 09:11:18;;;;;;;22.88;16.85;;;12.40;99.90;;;;;;4952620;28;20042;-70
2023/04/17 09:13:44;;;;;;;22.13;16.92;;;12.50;99.90;;;;;;4941224;28;20708;-70
2023/04/17 09:16:12;;;;;;;22.58;17.63;;;12.50;99.90;;;;;;4945564;28;20339;-67
2023/04/17 09:18:41;;;;;;;20.55;16.27;;;12.50;99.90;;;;;;4937424;28;20054;-67
2023/04/17 09:21:07;;;;;;;21.95;15.68;;;12.60;99.90;;;;;;4948096;28;20047;-68
2023/04/17 09:24:04;;;;;;;20.95;15.52;;;12.50;99.90;;;;;;4950583;28;20370;-68
2023/04/17 09:26:32;;;;;;;22.08;15.82;;;12.50;99.90;;;;;;4939940;28;20626;-69
2023/04/17 09:29:09;;;;;;;19.33;15.25;;;12.60;99.90;;;;;;4949927;28;20042;-69
2023/04/17 09:31:37;;;;;;;18.45;14.85;;;12.60;99.90;;;;;;4949961;28;20054;-67
2023/04/17 09:34:07;;;;;;;19.23;16.50;;;12.70;99.90;;;;;;4955269;28;20587;-69
2023/04/17 09:36:38;;;;;;;21.67;15.90;;;12.70;99.90;;;;;;4957084;28;20050;-70
2023/04/17 09:39:24;;;;;;;21.17;16.35;;;12.80;99.90;;;;;;4938570;28;20042;-69
2023/04/17 09:41:50;;;;;;;21.10;17.23;;;12.80;99.90;;;;;;4944333;28;20375;-68
2023/04/17 09:44:27;;;;;;;21.20;15.60;;;13.00;99.90;;;;;;4943064;28;20046;-69
2023/04/17 09:46:54;;;;;;;19.95;16.00;;;13.10;99.90;;;;;;4949957;28;20046;-70
2023/04/17 09:49:40;;;;;;;23.70;15.60;;;13.20;99.90;;;;;;4950203;28;20054;-68
2023/04/17 09:52:07;;;;;;;21.70;15.05;;;13.20;99.90;;;;;;4920019;28;20162;-70
2023/04/17 09:54:36;;;;;;;22.20;14.50;;;13.20;99.90;;;;;;4951213;28;20051;-68
2023/04/17 09:57:07;;;;;;;19.27;15.05;;;13.10;99.90;;;;;;4949912;28;20513;-69
2023/04/17 09:59:35;;;;;;;21.05;15.05;;;13.10;99.90;;;;;;4945472;28;20066;-68
2023/04/17 10:02:01;;;;;;;19.75;15.85;;;13.10;99.90;;;;;;4935290;28;20114;-67
2023/04/17 10:04:28;;;;;;;19.73;15.73;;;13.20;99.90;;;;;;4939295;28;20059;-68
2023/04/17 10:06:58;;;;;;;20.27;16.88;;;13.40;99.90;;;;;;4950539;28;20043;-70
2023/04/17 10:09:23;;;;;;;21.52;15.70;;;13.50;99.90;;;;;;4943479;28;20157;-69
2023/04/17 10:11:50;;;;;;;21.48;15.25;;;13.70;99.90;;;;;;4948399;28;20053;-68
2023/04/17 10:14:22;;;;;;;19.67;15.27;;;13.90;99.90;;;;;;4942339;28;20082;-69
2023/04/17 10:16:49;;;;;;;18.92;15.98;;;14.00;99.90;;;;;;4905714;28;20042;-67
2023/04/17 10:19:31;;;;;;;22.10;16.55;;;14.10;99.90;;;;;;4942161;28;20054;-69
2023/04/17 10:22:16;;;;;;;22.48;15.93;;;14.20;99.90;;;;;;4949194;28;20091;-68
2023/04/17 10:24:50;;;;;;;20.75;16.60;;;14.30;99.90;;;;;;4945839;28;20055;-69
2023/04/17 10:27:25;;;;;;;20.75;16.92;;;14.40;99.90;;;;;;4939160;28;20046;-68
2023/04/17 10:29:59;;;;;;;22.73;16.77;;;14.40;99.90;;;;;;4943815;28;20131;-67
2023/04/17 10:32:29;;;;;;;20.85;15.45;;;14.60;99.90;;;;;;4941835;28;20170;-67
2023/04/17 10:34:59;;;;;;;20.35;15.57;;;14.70;99.90;;;;;;4937304;28;20051;-68
2023/04/17 10:37:50;;;;;;;20.80;15.57;;;14.70;99.90;;;;;;4943942;28;20588;-68
2023/04/17 10:40:22;;;;;;;21.83;15.85;;;14.80;99.90;;;;;;4941761;28;20129;-69
2023/04/17 10:43:10;;;;;;;20.75;16.23;;;14.80;99.90;;;;;;4943242;28;20501;-70
2023/04/17 10:46:08;;;;;;;24.40;16.20;;;14.90;99.90;;;;;;4940530;28;20047;-69
2023/04/17 10:48:37;;;;;;;19.60;15.45;;;15.00;99.90;;;;;;4907823;28;20150;-70
2023/04/17 10:51:25;;;;;;;22.05;15.75;;;15.00;99.90;;;;;;4940683;28;20070;-70
2023/04/17 10:53:59;;;;;;;23.30;16.02;;;15.00;99.90;;;;;;4940858;28;20537;-68
2023/04/17 10:56:34;;;;;;;22.35;15.73;;;15.00;99.90;;;;;;4926097;28;20069;-69
2023/04/17 10:59:05;;;;;;;21.90;15.38;;;15.00;99.90;;;;;;4939719;28;20042;-70
2023/04/17 11:01:46;;;;;;;21.83;15.68;;;15.10;99.90;;;;;;4932337;28;20485;-68
2023/04/17 11:04:24;;;;;;;19.73;15.63;;;15.00;99.90;;;;;;4944878;28;20045;-68
2023/04/17 11:06:54;;;;;;;19.25;15.80;;;15.20;99.90;;;;;;4931941;28;20051;-67
2023/04/17 11:09:21;;;;;;;20.90;16.15;;;15.30;99.90;;;;;;4944021;28;20454;-69
2023/04/17 11:11:47;;;;;;;19.40;15.30;;;15.50;99.90;;;;;;4942641;28;20053;-69
2023/04/17 11:14:21;;;;;;;20.52;15.90;;;15.60;99.90;;;;;;4943398;28;20702;-69
2023/04/17 11:16:49;;;;;;;24.70;15.48;;;15.70;99.90;;;;;;4940018;28;20122;-67
2023/04/17 11:19:20;;;;;;;22.65;16.30;;;15.80;99.90;;;;;;4943540;28;20038;-67
2023/04/17 11:21:51;;;;;;;22.77;16.77;;;16.10;99.90;;;;;;4948151;28;20043;-68
2023/04/17 11:24:28;;;;;;;19.63;16.33;;;16.30;99.90;;;;;;4944270;28;20529;-69
2023/04/17 11:26:55;;;;;;;22.02;16.13;;;16.40;99.90;;;;;;4923049;28;20046;-68
2023/04/17 11:29:23;;;;;;;20.73;15.88;;;16.30;99.90;;;;;;4943361;28;20053;-68
2023/04/17 11:31:50;;;;;;;21.55;17.40;;;16.30;99.90;;;;;;4929287;28;20126;-70
2023/04/17 11:34:17;;;;;;;21.27;16.52;;;16.40;99.90;;;;;;4944074;28;20039;-70
2023/04/17 11:36:59;;;;;;;22.58;16.83;;;16.60;99.90;;;;;;4945072;28;20050;-70
2023/04/17 11:39:28;;;;;;;22.67;16.45;;;16.80;99.90;;;;;;4942275;28;20468;-69
2023/04/17 11:41:55;;;;;;;25.70;17.08;;;17.00;99.90;;;;;;4943822;28;20050;-70
2023/04/17 11:44:22;;;;;;;23.88;17.88;;;16.90;99.90;;;;;;4942390;28;20057;-68
2023/04/17 11:46:52;;;;;;;23.88;17.48;;;16.90;99.90;;;;;;4943269;28;20452;-69
2023/04/17 11:49:30;;;;;;;23.92;17.67;;;16.90;99.90;;;;;;4946250;28;20042;-70
2023/04/17 11:51:59;;;;;;;22.65;17.20;;;17.00;99.90;;;;;;4945764;28;20070;-70
2023/04/17 11:54:28;;;;;;;22.05;16.85;;;17.00;99.90;;;;;;4947496;28;20460;-70
2023/04/17 11:57:11;;;;;;;26.63;16.95;;;17.10;99.90;;;;;;4949793;28;20046;-70
2023/04/17 11:59:40;;;;;;;24.33;16.35;;;17.10;99.90;;;;;;4946969;28;20054;-68
2023/04/17 12:02:07;;;;;;;19.90;15.98;;;17.00;99.90;;;;;;4949275;28;20046;-70
2023/04/17 12:04:35;;;;;;;24.98;18.30;;;17.10;99.90;;;;;;4947315;28;20046;-69
2023/04/17 12:07:02;;;;;;;20.90;16.80;;;17.10;99.90;;;;;;4952068;28;20042;-69
2023/04/17 12:09:30;;;;;;;22.38;17.95;;;17.10;99.90;;;;;;4944340;28;20061;-70
2023/04/17 12:12:14;;;;;;;23.10;17.75;;;17.10;99.90;;;;;;4937995;28;20058;-68
2023/04/17 12:14:40;;;;;;;22.85;17.33;;;17.00;99.90;;;;;;4921059;28;20096;-70
2023/04/17 12:17:06;;;;;;;20.83;16.83;;;17.20;99.90;;;;;;4944354;28;21033;-68
2023/04/17 12:19:32;;;;;;;23.52;15.57;;;17.20;99.90;;;;;;4923611;28;20553;-69
2023/04/17 12:21:58;;;;;;;25.13;16.58;;;17.40;99.90;;;;;;4939243;28;20054;-69
2023/04/17 12:24:24;;;;;;;21.48;16.55;;;17.50;99.90;;;;;;4940837;28;20487;-70
2023/04/17 12:26:50;;;;;;;23.80;15.75;;;17.60;99.90;;;;;;4929837;28;20150;-70
2023/04/17 12:29:19;;;;;;;20.98;16.13;;;17.60;99.90;;;;;;4921767;28;20116;-68
2023/04/17 12:31:45;;;;;;;22.63;15.80;;;17.80;99.90;;;;;;4948387;28;20128;-70
2023/04/17 12:34:10;;;;;;;20.75;16.15;;;17.80;99.90;;;;;;4947284;28;20073;-70
2023/04/17 12:36:36;;;;;;;22.67;16.25;;;17.90;99.90;;;;;;4950438;28;20039;-70